Archival Weather

Komakuk Beach

Komakuk Beach, Canada (CWKM)

Report from: Saturday, April 1, 2023 11:00 PM UTC
Current time: Monday, June 17, 2024 10:13 AM UTC

Current weather – Weather history – Daily summaries
Weather forecast

Present weatherSM
Temperature-15.0°C (5.0°F)
Wind chill-27.3°C (-17.1°F)
Dew point-18.0°C (-0.4°F)
Winds 21 kts (10.8 m/s, 24.2 mph) East-Southeast (110°)
Wind gusts 26 kts (13.4 m/s, 29.9 mph)
Visibility0 ft. (0 m)
Clouds Sky clear
Altimeter29.92 in.Hg (1013 mB)
Relative humidity78 %
Density altitude-3,766 ft. (-1,148 m)
Remarks Fully automated report
No clouds detected
Flight conditions Low Instrument Meteorological Conditions
Raw dataCWKM 012300Z AUTO 11021G26KT ////SM NCD M15/M18 A2992
An error has occurred. This application may no longer respond until reloaded. Reload 🗙